createdAt,value
2018-08-03T03:17:11.322Z,24.95
2018-08-03T03:19:39.546Z,23.80
2018-08-03T03:22:07.993Z,23.50
2018-08-03T03:24:36.145Z,26.40
2018-08-03T03:27:04.557Z,27.87
2018-08-03T03:29:32.831Z,26.55
2018-08-03T03:32:01.116Z,27.55
2018-08-03T03:34:29.259Z,28.25
2018-08-03T03:36:57.637Z,27.80
2018-08-03T03:39:25.938Z,26.93
2018-08-03T03:41:54.623Z,26.73
2018-08-03T03:44:22.792Z,27.10
2018-08-03T03:46:51.181Z,28.05
2018-08-03T03:49:19.546Z,28.53
2018-08-03T03:51:47.911Z,28.45
2018-08-03T03:54:16.104Z,27.37
2018-08-03T03:56:44.277Z,29.10
2018-08-03T03:59:12.492Z,29.97
2018-08-03T04:01:40.421Z,29.45
2018-08-03T04:04:08.915Z,28.45
2018-08-03T04:06:36.967Z,29.63
2018-08-03T04:09:08.388Z,30.17
2018-08-03T04:11:36.600Z,29.42
2018-08-03T04:14:04.771Z,29.92
2018-08-03T04:16:33.041Z,29.77
2018-08-03T04:19:01.116Z,30.08
2018-08-03T04:21:29.476Z,27.17
2018-08-03T04:23:57.250Z,28.80
2018-08-03T04:26:25.090Z,26.77
2018-08-03T04:28:53.283Z,28.60
2018-08-03T04:31:21.387Z,29.52
2018-08-03T04:33:49.581Z,26.87
2018-08-03T04:36:17.844Z,26.45
2018-08-03T04:38:45.926Z,25.90
2018-08-03T04:41:14.100Z,24.82
2018-08-03T04:43:42.271Z,26.85
2018-08-03T04:46:10.342Z,27.63
2018-08-03T04:48:38.480Z,27.42
2018-08-03T04:51:06.512Z,26.37
2018-08-03T04:53:34.551Z,27.48
2018-08-03T04:56:02.664Z,27.25
2018-08-03T04:58:30.833Z,24.47
2018-08-03T05:00:59.092Z,24.35
2018-08-03T05:03:27.385Z,24.00
2018-08-03T05:05:55.448Z,24.37
2018-08-03T05:08:23.528Z,23.65
2018-08-03T05:10:51.775Z,25.48
2018-08-03T05:13:19.892Z,25.37
2018-08-03T05:15:48.076Z,26.00
2018-08-03T05:18:16.413Z,25.85
2018-08-03T05:20:44.557Z,26.00
2018-08-03T05:23:12.691Z,25.55
2018-08-03T05:25:40.964Z,25.80
2018-08-03T05:28:09.247Z,26.10
2018-08-03T05:30:37.285Z,27.15
2018-08-03T05:33:05.500Z,25.82
2018-08-03T05:35:33.756Z,26.33
2018-08-03T05:38:01.710Z,27.05
2018-08-03T05:40:29.713Z,27.10
2018-08-03T05:42:57.764Z,27.30
2018-08-03T05:45:25.957Z,27.27
2018-08-03T05:47:54.040Z,27.62
2018-08-03T05:50:22.209Z,27.55
2018-08-03T05:52:50.372Z,28.98
2018-08-03T05:55:18.431Z,28.77
2018-08-03T05:57:46.520Z,28.03
2018-08-03T06:00:14.814Z,28.25
2018-08-03T06:02:42.892Z,29.32
2018-08-03T06:05:10.949Z,29.80
2018-08-03T06:07:39.451Z,28.15
2018-08-03T06:10:07.917Z,29.18
2018-08-03T06:12:35.959Z,30.10
2018-08-03T06:15:05.412Z,29.72
2018-08-03T06:17:33.448Z,29.63
2018-08-03T06:20:01.728Z,28.00
2018-08-03T06:22:29.822Z,30.00
2018-08-03T06:24:58.120Z,28.92
2018-08-03T06:27:26.148Z,28.00
2018-08-03T06:29:54.570Z,29.30
2018-08-03T06:32:22.838Z,28.35
2018-08-03T06:34:50.906Z,28.40
2018-08-03T06:37:19.089Z,27.85
2018-08-03T06:39:47.224Z,28.00
2018-08-03T06:42:15.330Z,28.45
2018-08-03T06:44:43.572Z,27.97
2018-08-03T06:47:11.475Z,28.40
2018-08-03T06:49:39.636Z,27.98
2018-08-03T06:52:07.933Z,30.10
2018-08-03T06:54:36.113Z,28.83
2018-08-03T06:57:04.237Z,28.25
2018-08-03T06:59:32.035Z,27.35
2018-08-03T07:02:00.455Z,27.20
2018-08-03T07:04:28.647Z,27.98
2018-08-03T07:06:56.683Z,28.35
2018-08-03T07:09:24.842Z,28.40
2018-08-03T07:11:52.943Z,28.50
2018-08-03T07:14:21.077Z,28.60
2018-08-03T07:16:49.160Z,27.13
2018-08-03T07:19:17.536Z,29.30
2018-08-03T07:21:45.766Z,28.17
2018-08-03T07:24:14.017Z,28.30
2018-08-03T07:26:42.060Z,27.58
2018-08-03T07:29:10.156Z,28.07
2018-08-03T07:31:38.393Z,27.85
2018-08-03T07:34:06.387Z,27.67
2018-08-03T07:36:34.564Z,28.95
2018-08-03T07:39:03.065Z,28.83
2018-08-03T07:41:31.126Z,28.40
2018-08-03T07:43:59.221Z,27.37
2018-08-03T07:46:27.369Z,26.20
2018-08-03T07:48:55.591Z,25.88
2018-08-03T07:51:23.730Z,25.80
2018-08-03T07:53:51.894Z,26.80
2018-08-03T07:56:22.141Z,28.27
2018-08-03T07:58:50.216Z,26.75
2018-08-03T08:01:24.808Z,27.75
2018-08-03T08:03:53.000Z,26.87
2018-08-03T08:06:21.116Z,27.37
2018-08-03T08:08:49.517Z,26.33
2018-08-03T08:11:17.724Z,25.95
2018-08-03T08:13:45.922Z,25.80
2018-08-03T08:16:13.993Z,25.65
2018-08-03T08:18:42.036Z,26.52
2018-08-03T08:21:10.135Z,24.80
2018-08-03T08:23:38.491Z,26.07
2018-08-03T08:26:06.908Z,24.98
2018-08-03T08:28:35.052Z,25.13
2018-08-03T08:31:03.155Z,25.27
2018-08-03T08:33:31.319Z,26.23
2018-08-03T08:35:59.485Z,23.60
2018-08-03T08:38:27.568Z,26.17
2018-08-03T08:40:55.744Z,25.43
2018-08-03T08:43:23.870Z,24.67
2018-08-03T08:45:51.995Z,25.23
2018-08-03T08:48:20.096Z,23.97
2018-08-03T08:50:48.104Z,24.50
2018-08-03T08:53:15.944Z,24.52
2018-08-03T08:55:44.112Z,24.15
2018-08-03T08:58:12.132Z,24.75
2018-08-03T09:00:40.338Z,23.55
2018-08-03T09:03:08.413Z,24.50
2018-08-03T09:05:36.459Z,22.50
2018-08-03T09:08:04.762Z,23.50
2018-08-03T09:10:32.852Z,23.98
2018-08-03T09:13:00.897Z,23.05
2018-08-03T09:15:28.965Z,24.40
2018-08-03T09:17:57.129Z,23.98
2018-08-03T09:20:25.370Z,23.57
2018-08-03T09:22:53.854Z,22.50
2018-08-03T09:25:21.936Z,24.02
2018-08-03T09:27:50.302Z,24.77
2018-08-03T09:30:18.304Z,24.23
2018-08-03T09:32:46.111Z,26.12
2018-08-03T09:35:14.384Z,23.60
2018-08-03T09:37:42.481Z,23.75
2018-08-03T09:40:10.593Z,24.87
2018-08-03T09:42:38.400Z,23.62
2018-08-03T09:45:06.649Z,24.07
2018-08-03T09:47:34.824Z,24.47
2018-08-03T09:50:03.122Z,24.90
2018-08-03T09:52:31.204Z,24.73
2018-08-03T09:54:59.325Z,25.90
2018-08-03T09:57:27.539Z,26.77
2018-08-03T09:59:55.838Z,25.30
2018-08-03T10:02:24.096Z,21.53
2018-08-03T10:04:52.164Z,22.82
2018-08-03T10:07:20.297Z,22.47
2018-08-03T10:09:48.422Z,24.03
2018-08-03T10:12:16.513Z,22.60
2018-08-03T10:14:44.566Z,23.10
2018-08-03T10:17:12.664Z,23.25
2018-08-03T10:19:40.962Z,22.77
2018-08-03T10:22:09.270Z,21.90
2018-08-03T10:24:37.620Z,21.10
2018-08-03T10:27:05.755Z,20.90
2018-08-03T10:29:34.063Z,21.23
2018-08-03T10:32:02.117Z,21.87
2018-08-03T10:34:30.315Z,20.68
2018-08-03T10:36:58.351Z,19.37
2018-08-03T10:39:26.427Z,19.98
2018-08-03T10:41:54.491Z,17.87
2018-08-03T10:44:22.804Z,18.20
2018-08-03T10:46:50.872Z,18.17
2018-08-03T10:49:18.917Z,19.17
2018-08-03T10:51:47.024Z,18.83
2018-08-03T10:54:15.153Z,19.20
2018-08-03T10:56:43.365Z,18.45
2018-08-03T10:59:11.535Z,18.82
2018-08-03T11:01:39.641Z,16.27
2018-08-03T12:12:56.099Z,17.20
2018-08-03T12:15:24.160Z,15.67
2018-08-03T12:17:52.091Z,14.47
2018-08-03T12:20:20.216Z,15.10
2018-08-03T12:22:48.304Z,13.97
2018-08-03T12:25:16.460Z,15.70
2018-08-03T12:27:44.551Z,13.07
2018-08-03T12:30:12.742Z,13.43
2018-08-03T12:32:40.904Z,13.67
2018-08-03T12:35:09.084Z,15.10
2018-08-03T12:37:37.260Z,16.00
2018-08-03T12:40:05.428Z,15.70
2018-08-03T12:42:34.619Z,16.67
2018-08-03T12:45:02.821Z,17.57
2018-08-03T12:47:30.968Z,15.00
2018-08-03T12:49:59.041Z,14.97
2018-08-03T12:52:27.284Z,15.60
2018-08-03T12:54:55.486Z,13.47
2018-08-03T12:57:23.703Z,14.43
2018-08-03T12:59:52.376Z,15.10
2018-08-03T13:02:20.252Z,15.53
2018-08-03T13:04:48.424Z,15.87
2018-08-03T13:07:16.586Z,15.20
2018-08-03T13:09:44.696Z,14.77
2018-08-03T13:12:12.952Z,13.50
2018-08-03T13:14:42.234Z,14.03
2018-08-03T13:17:10.402Z,13.13
2018-08-03T13:19:38.608Z,13.40
2018-08-03T13:22:11.716Z,13.60
2018-08-03T13:24:39.956Z,13.57
2018-08-03T13:27:08.178Z,13.47
2018-08-03T13:29:36.207Z,13.90
2018-08-03T13:32:04.515Z,13.40
2018-08-03T13:34:32.652Z,12.40
2018-08-03T13:37:00.715Z,14.10
2018-08-03T13:39:28.549Z,13.70
2018-08-03T13:41:56.671Z,12.23
2018-08-03T13:44:24.744Z,14.70
2018-08-03T13:46:52.713Z,12.13
2018-08-03T13:49:20.713Z,12.50
2018-08-03T13:51:49.036Z,12.87
2018-08-03T13:54:17.030Z,13.13
2018-08-03T13:56:45.024Z,13.03
2018-08-03T13:59:13.193Z,14.47
2018-08-03T14:01:52.340Z,12.90
2018-08-03T14:04:20.528Z,12.83
2018-08-03T14:06:48.599Z,13.70
2018-08-03T14:09:16.755Z,12.70
2018-08-03T14:11:45.027Z,13.13
2018-08-03T14:14:13.107Z,12.77
2018-08-03T14:16:41.161Z,13.23
2018-08-03T14:19:09.707Z,13.80
2018-08-03T14:21:38.212Z,13.70
2018-08-03T14:24:06.028Z,13.40
2018-08-03T14:26:34.252Z,13.87
2018-08-03T14:29:02.169Z,13.17
2018-08-03T14:31:30.486Z,14.90
2018-08-03T14:33:58.588Z,13.27
2018-08-03T14:36:26.494Z,14.03
2018-08-03T14:38:55.064Z,12.70
2018-08-03T14:41:23.294Z,11.50
2018-08-03T14:43:51.114Z,12.80
2018-08-03T14:46:19.505Z,12.93
2018-08-03T14:48:47.787Z,12.43
2018-08-03T14:51:15.815Z,11.77
2018-08-03T14:53:43.724Z,12.60
2018-08-03T14:56:11.937Z,12.33
2018-08-03T14:58:40.063Z,13.17
2018-08-03T15:01:08.421Z,12.77
2018-08-03T15:03:36.427Z,14.23
2018-08-03T15:06:04.493Z,12.27
2018-08-03T15:08:32.708Z,12.67
2018-08-03T15:11:01.511Z,13.50
2018-08-03T15:13:29.615Z,12.77
2018-08-03T15:15:57.704Z,12.57
2018-08-03T15:18:25.797Z,12.50
2018-08-03T15:20:53.954Z,11.60
2018-08-03T15:23:22.009Z,12.47
2018-08-03T15:25:50.225Z,11.50
2018-08-03T15:28:18.272Z,12.83
2018-08-03T15:30:46.323Z,12.27
2018-08-03T15:33:14.215Z,12.73
2018-08-03T15:35:42.578Z,12.60
2018-08-03T15:38:10.608Z,12.47
2018-08-03T15:40:38.729Z,12.73
2018-08-03T15:43:17.409Z,12.30
2018-08-03T15:45:45.528Z,13.37
2018-08-03T15:48:13.654Z,12.67
2018-08-03T15:50:41.694Z,11.80
2018-08-03T15:53:09.993Z,12.63
2018-08-03T15:55:38.122Z,11.63
2018-08-03T15:58:06.444Z,12.50
2018-08-03T16:00:34.887Z,12.37
2018-08-03T16:03:03.756Z,11.57
2018-08-03T16:05:31.555Z,15.63
2018-08-03T16:07:59.612Z,15.87
2018-08-03T16:10:27.804Z,15.30
2018-08-03T16:12:55.997Z,14.38
2018-08-03T16:15:24.298Z,18.97
2018-08-03T16:17:52.461Z,14.80
2018-08-03T16:20:20.517Z,20.70
2018-08-03T16:22:48.577Z,19.80
2018-08-03T16:25:16.684Z,18.48
2018-08-03T16:27:44.940Z,19.50
2018-08-03T16:30:13.015Z,15.00
2018-08-03T16:32:41.335Z,11.33
2018-08-03T16:35:10.071Z,13.40
2018-08-03T16:37:38.476Z,15.48
2018-08-03T16:40:07.545Z,15.40
2018-08-03T16:42:35.847Z,14.53
2018-08-03T16:45:04.538Z,13.22
2018-08-03T16:47:32.680Z,14.13
2018-08-03T16:50:00.945Z,14.15
2018-08-03T16:52:29.042Z,12.53
2018-08-03T16:54:57.404Z,14.20
2018-08-03T16:57:25.494Z,13.35
2018-08-03T16:59:53.793Z,12.82
2018-08-03T17:02:22.145Z,14.63
2018-08-03T17:04:50.455Z,16.15
2018-08-03T17:07:18.504Z,12.65
2018-08-03T17:09:46.708Z,13.32
2018-08-03T17:12:14.979Z,12.98
2018-08-03T17:14:43.140Z,12.88
2018-08-03T17:17:11.256Z,14.58
2018-08-03T17:19:39.481Z,16.12
2018-08-03T17:22:07.575Z,16.20
2018-08-03T17:24:35.736Z,16.30
2018-08-03T17:27:03.912Z,15.68
2018-08-03T17:29:31.967Z,16.83
2018-08-03T17:31:59.897Z,16.17
2018-08-03T17:34:28.037Z,15.30
2018-08-03T17:36:56.380Z,15.25
2018-08-03T17:39:24.492Z,14.53
2018-08-03T17:41:52.555Z,14.97
2018-08-03T17:44:20.849Z,13.97
2018-08-03T17:46:48.921Z,13.35
2018-08-03T17:49:17.008Z,14.43
2018-08-03T17:51:45.045Z,13.90
2018-08-03T17:54:13.140Z,14.73
2018-08-03T17:56:41.189Z,14.95
2018-08-03T17:59:09.336Z,15.18
2018-08-03T18:01:37.481Z,14.95
2018-08-03T18:04:05.556Z,14.80
2018-08-03T18:06:33.692Z,14.70
2018-08-03T18:09:02.124Z,13.30
2018-08-03T18:11:30.150Z,14.60
2018-08-03T18:13:58.242Z,15.50
2018-08-03T18:16:26.496Z,15.17
2018-08-03T18:18:54.594Z,16.20
2018-08-03T18:21:22.851Z,17.30
2018-08-03T18:23:51.153Z,16.02
2018-08-03T18:26:19.303Z,16.15
2018-08-03T18:28:47.529Z,16.20
2018-08-03T18:31:15.670Z,16.62
2018-08-03T18:33:43.749Z,17.60
2018-08-03T18:36:11.856Z,19.07
2018-08-03T18:38:40.076Z,20.10
2018-08-03T18:41:08.284Z,20.08
2018-08-03T18:43:36.331Z,20.55
2018-08-03T18:46:04.681Z,20.75
2018-08-03T18:48:32.681Z,19.95
2018-08-03T18:51:00.878Z,20.48
2018-08-03T18:53:29.165Z,20.53
2018-08-03T18:55:57.410Z,20.95
2018-08-03T18:58:25.863Z,20.08
2018-08-03T19:00:54.071Z,19.70
2018-08-03T19:03:22.281Z,18.80
2018-08-03T19:05:50.308Z,21.00
2018-08-03T19:08:18.521Z,21.15
2018-08-03T19:10:46.665Z,21.33
2018-08-03T19:13:14.861Z,21.52
2018-08-03T19:15:42.921Z,20.25
2018-08-03T19:18:11.112Z,21.17
2018-08-03T19:20:39.216Z,20.25
2018-08-03T19:23:07.369Z,21.27
2018-08-03T19:25:35.525Z,19.35
2018-08-03T19:28:03.617Z,21.07
2018-08-03T19:30:31.860Z,21.82
2018-08-03T19:33:00.346Z,19.20
2018-08-03T19:35:28.659Z,19.05
2018-08-03T19:37:56.908Z,19.67
2018-08-03T19:40:25.014Z,20.03
2018-08-03T19:42:53.513Z,20.72
2018-08-03T19:45:21.531Z,20.30
2018-08-03T19:47:49.723Z,20.55
2018-08-03T19:50:17.912Z,21.73
2018-08-03T19:52:46.090Z,20.23
2018-08-03T19:55:14.181Z,21.07
2018-08-03T19:57:42.201Z,21.82
2018-08-03T20:00:11.337Z,21.47
2018-08-03T20:02:39.739Z,20.40
2018-08-03T20:05:08.587Z,20.20
2018-08-03T20:07:36.800Z,20.70
2018-08-03T20:10:05.583Z,21.25
2018-08-03T20:12:33.773Z,22.07
2018-08-03T20:15:01.788Z,21.50
2018-08-03T20:17:29.883Z,21.52
2018-08-03T20:19:58.076Z,22.25
2018-08-03T20:22:26.215Z,22.67
2018-08-03T20:24:54.529Z,23.10
2018-08-03T20:27:22.660Z,23.70
2018-08-03T20:29:50.463Z,22.98
2018-08-03T20:32:18.537Z,24.27
2018-08-03T20:34:46.591Z,23.20
2018-08-03T20:37:14.929Z,23.45
2018-08-03T20:40:07.784Z,23.90
2018-08-03T20:42:40.259Z,22.80
2018-08-03T20:45:13.513Z,23.40
2018-08-03T20:47:58.802Z,23.73
2018-08-03T20:50:46.708Z,24.05
2018-08-03T20:53:43.523Z,24.40
2018-08-03T20:56:56.915Z,25.02
2018-08-03T21:00:02.966Z,23.93
2018-08-03T21:02:33.937Z,21.68
2018-08-03T21:05:07.405Z,22.48
2018-08-03T21:07:39.685Z,23.80
2018-08-03T21:10:15.660Z,26.02
2018-08-03T21:12:48.269Z,22.52
2018-08-03T21:15:23.284Z,22.87
2018-08-03T21:18:00.412Z,24.95
2018-08-03T21:20:34.655Z,27.27
2018-08-03T21:23:12.168Z,27.97
2018-08-03T21:25:46.727Z,25.20
2018-08-03T21:28:19.171Z,25.45
2018-08-03T21:30:54.262Z,25.80
2018-08-03T21:33:28.143Z,24.80
2018-08-03T21:35:59.434Z,26.85
2018-08-03T21:38:30.965Z,28.70
2018-08-03T21:41:04.430Z,27.05
2018-08-03T21:43:37.750Z,25.90
2018-08-03T21:46:10.796Z,26.37
2018-08-03T21:48:44.807Z,25.30
2018-08-03T21:51:18.833Z,25.10
2018-08-03T21:53:52.388Z,25.97
2018-08-03T21:56:22.722Z,25.85
2018-08-03T21:58:59.613Z,25.85
2018-08-03T22:01:30.559Z,27.32
2018-08-03T22:04:01.304Z,25.50
2018-08-03T22:06:31.895Z,25.35
2018-08-03T22:09:03.528Z,21.83
2018-08-03T22:11:31.590Z,23.40
2018-08-03T22:13:59.736Z,22.20
2018-08-03T22:16:27.836Z,20.88
2018-08-03T22:18:55.956Z,21.50
2018-08-03T22:21:24.148Z,22.85
2018-08-03T22:23:52.367Z,26.37
2018-08-03T22:26:20.463Z,26.40
2018-08-03T22:28:48.600Z,27.07
2018-08-03T22:31:16.639Z,26.12
2018-08-03T22:33:44.563Z,24.25
2018-08-03T22:36:12.672Z,25.12
2018-08-03T22:38:40.541Z,26.65
2018-08-03T22:41:08.646Z,26.15
2018-08-03T22:43:36.827Z,26.68
2018-08-03T22:46:05.104Z,29.30
2018-08-03T22:48:33.267Z,26.20
2018-08-03T22:51:01.376Z,26.93
2018-08-03T22:53:29.648Z,25.35
2018-08-03T22:55:57.785Z,26.77
2018-08-03T22:58:25.925Z,26.37
2018-08-03T23:00:54.157Z,25.75
2018-08-03T23:03:22.277Z,25.30
2018-08-03T23:05:50.527Z,27.00
2018-08-03T23:08:18.691Z,27.42
2018-08-03T23:10:46.766Z,26.47
2018-08-03T23:13:15.028Z,26.55
2018-08-03T23:15:43.117Z,23.40
2018-08-03T23:18:11.344Z,24.27
2018-08-03T23:20:39.155Z,26.17
2018-08-03T23:23:07.318Z,21.37
2018-08-03T23:25:35.420Z,23.18
2018-08-03T23:28:03.567Z,24.72
2018-08-03T23:30:31.764Z,26.02
2018-08-03T23:32:59.839Z,28.30
2018-08-03T23:35:27.980Z,28.45
2018-08-03T23:37:56.178Z,26.40
2018-08-03T23:40:24.228Z,29.65
2018-08-03T23:42:52.024Z,37.65
2018-08-03T23:45:20.193Z,39.23
2018-08-03T23:47:48.318Z,38.23
2018-08-03T23:50:17.552Z,35.92
2018-08-03T23:52:47.065Z,28.70
2018-08-03T23:55:15.629Z,28.67
2018-08-03T23:57:43.618Z,32.65
